sensor_id;sensor_type;location;lat;lon;timestamp;temperature;humidity
56123;DHT22;42426;46.104;19.656;2023-03-21T00:00:46;307.40;2201.60
56123;DHT22;42426;46.104;19.656;2023-03-21T00:03:13;307.30;2201.60
56123;DHT22;42426;46.104;19.656;2023-03-21T00:05:42;307.30;2201.60
56123;DHT22;42426;46.104;19.656;2023-03-21T00:08:14;307.30;2201.60
56123;DHT22;42426;46.104;19.656;2023-03-21T00:10:40;307.30;2201.60
56123;DHT22;42426;46.104;19.656;2023-03-21T00:13:06;307.20;2201.60
56123;DHT22;42426;46.104;19.656;2023-03-21T00:15:32;307.20;2201.60
56123;DHT22;42426;46.104;19.656;2023-03-21T00:17:57;307.20;2201.60
56123;DHT22;42426;46.104;19.656;2023-03-21T00:20:31;307.20;2201.60
56123;DHT22;42426;46.104;19.656;2023-03-21T00:23:00;307.20;2201.60
56123;DHT22;42426;46.104;19.656;2023-03-21T00:25:26;307.20;2201.60
56123;DHT22;42426;46.104;19.656;2023-03-21T00:27:52;307.20;2176.00
56123;DHT22;42426;46.104;19.656;2023-03-21T00:30:18;282.50;2150.40
56123;DHT22;42426;46.104;19.656;2023-03-21T00:32:45;307.20;2176.00
56123;DHT22;42426;46.104;19.656;2023-03-21T00:35:11;307.20;2176.00
56123;DHT22;42426;46.104;19.656;2023-03-21T00:37:37;282.50;2150.40
56123;DHT22;42426;46.104;19.656;2023-03-21T00:40:03;282.50;2150.40
56123;DHT22;42426;46.104;19.656;2023-03-21T00:42:34;282.50;2150.40
56123;DHT22;42426;46.104;19.656;2023-03-21T00:45:00;282.50;2124.80
56123;DHT22;42426;46.104;19.656;2023-03-21T00:47:27;282.40;2150.40
56123;DHT22;42426;46.104;19.656;2023-03-21T00:49:53;282.50;2150.40
56123;DHT22;42426;46.104;19.656;2023-03-21T00:52:19;307.20;2150.40
56123;DHT22;42426;46.104;19.656;2023-03-21T00:54:44;307.20;2176.00
56123;DHT22;42426;46.104;19.656;2023-03-21T00:57:10;282.50;2124.80
56123;DHT22;42426;46.104;19.656;2023-03-21T00:59:36;282.50;2124.80
56123;DHT22;42426;46.104;19.656;2023-03-21T01:02:01;282.50;2150.40
56123;DHT22;42426;46.104;19.656;2023-03-21T01:04:32;282.50;2150.40
56123;DHT22;42426;46.104;19.656;2023-03-21T01:06:59;282.50;2150.40
56123;DHT22;42426;46.104;19.656;2023-03-21T01:09:25;282.50;2150.40
56123;DHT22;42426;46.104;19.656;2023-03-21T01:11:52;282.50;2150.40
56123;DHT22;42426;46.104;19.656;2023-03-21T01:14:19;282.50;2150.40
56123;DHT22;42426;46.104;19.656;2023-03-21T01:16:46;282.50;2150.40
56123;DHT22;42426;46.104;19.656;2023-03-21T01:19:15;307.20;2176.00
56123;DHT22;42426;46.104;19.656;2023-03-21T01:21:42;307.20;2176.00
56123;DHT22;42426;46.104;19.656;2023-03-21T01:24:09;282.20;2124.80
56123;DHT22;42426;46.104;19.656;2023-03-21T01:26:35;307.20;2176.00
56123;DHT22;42426;46.104;19.656;2023-03-21T01:29:04;307.20;2176.00
56123;DHT22;42426;46.104;19.656;2023-03-21T01:31:30;307.20;2176.00
56123;DHT22;42426;46.104;19.656;2023-03-21T01:33:56;307.20;2150.40
56123;DHT22;42426;46.104;19.656;2023-03-21T01:36:24;307.20;2150.40
56123;DHT22;42426;46.104;19.656;2023-03-21T01:38:51;307.20;2150.40
56123;DHT22;42426;46.104;19.656;2023-03-21T01:43:53;307.30;2150.40
56123;DHT22;42426;46.104;19.656;2023-03-21T01:49:02;307.30;2150.40
56123;DHT22;42426;46.104;19.656;2023-03-21T01:51:31;307.30;2150.40
56123;DHT22;42426;46.104;19.656;2023-03-21T01:53:58;307.30;2150.40
56123;DHT22;42426;46.104;19.656;2023-03-21T01:56:28;307.30;2150.40
56123;DHT22;42426;46.104;19.656;2023-03-21T01:59:00;307.30;2150.40
56123;DHT22;42426;46.104;19.656;2023-03-21T02:01:30;307.30;2176.00
56123;DHT22;42426;46.104;19.656;2023-03-21T02:04:00;307.30;2176.00
56123;DHT22;42426;46.104;19.656;2023-03-21T02:09:17;307.30;2176.00
56123;DHT22;42426;46.104;19.656;2023-03-21T02:11:44;307.20;2176.00
56123;DHT22;42426;46.104;19.656;2023-03-21T02:14:14;307.30;2176.00
56123;DHT22;42426;46.104;19.656;2023-03-21T02:17:01;307.30;2176.00
56123;DHT22;42426;46.104;19.656;2023-03-21T02:33:45;307.20;2176.00
56123;DHT22;42426;46.104;19.656;2023-03-21T02:36:23;307.20;2176.00
56123;DHT22;42426;46.104;19.656;2023-03-21T02:44:23;307.20;2201.60
56123;DHT22;42426;46.104;19.656;2023-03-21T02:47:01;307.20;2176.00
56123;DHT22;42426;46.104;19.656;2023-03-21T02:49:39;307.20;2201.60
56123;DHT22;42426;46.104;19.656;2023-03-21T02:52:09;307.20;2201.60
56123;DHT22;42426;46.104;19.656;2023-03-21T02:54:37;307.20;2176.00
56123;DHT22;42426;46.104;19.656;2023-03-21T02:57:05;307.20;2201.60
56123;DHT22;42426;46.104;19.656;2023-03-21T02:59:31;307.20;2201.60
56123;DHT22;42426;46.104;19.656;2023-03-21T03:01:58;307.20;2201.60
56123;DHT22;42426;46.104;19.656;2023-03-21T03:04:26;307.20;2201.60
56123;DHT22;42426;46.104;19.656;2023-03-21T03:12:10;307.20;2201.60
56123;DHT22;42426;46.104;19.656;2023-03-21T03:14:51;307.20;2201.60
56123;DHT22;42426;46.104;19.656;2023-03-21T03:22:52;307.30;2176.00
56123;DHT22;42426;46.104;19.656;2023-03-21T03:25:23;307.20;2201.60
56123;DHT22;42426;46.104;19.656;2023-03-21T03:27:53;307.20;2201.60
56123;DHT22;42426;46.104;19.656;2023-03-21T03:30:21;307.20;2201.60
56123;DHT22;42426;46.104;19.656;2023-03-21T03:32:52;307.20;2227.20
56123;DHT22;42426;46.104;19.656;2023-03-21T03:35:20;307.20;2227.20
56123;DHT22;42426;46.104;19.656;2023-03-21T03:37:51;307.20;2227.20
56123;DHT22;42426;46.104;19.656;2023-03-21T03:40:40;307.20;2227.20
56123;DHT22;42426;46.104;19.656;2023-03-21T03:43:12;307.20;2227.20
56123;DHT22;42426;46.104;19.656;2023-03-21T03:45:46;307.20;2227.20
56123;DHT22;42426;46.104;19.656;2023-03-21T03:48:39;307.20;2227.20
56123;DHT22;42426;46.104;19.656;2023-03-21T03:51:16;307.20;2227.20
56123;DHT22;42426;46.104;19.656;2023-03-21T03:53:54;282.50;2227.20
56123;DHT22;42426;46.104;19.656;2023-03-21T03:56:21;307.20;2252.80
56123;DHT22;42426;46.104;19.656;2023-03-21T03:58:48;282.50;2227.20
56123;DHT22;42426;46.104;19.656;2023-03-21T04:01:13;282.50;2227.20
56123;DHT22;42426;46.104;19.656;2023-03-21T04:03:41;282.50;2227.20
56123;DHT22;42426;46.104;19.656;2023-03-21T04:06:07;282.50;2227.20
56123;DHT22;42426;46.104;19.656;2023-03-21T04:08:33;282.50;2227.20
56123;DHT22;42426;46.104;19.656;2023-03-21T04:11:00;282.50;2227.20
56123;DHT22;42426;46.104;19.656;2023-03-21T04:13:27;282.50;2227.20
56123;DHT22;42426;46.104;19.656;2023-03-21T04:15:52;282.50;2227.20
56123;DHT22;42426;46.104;19.656;2023-03-21T04:18:18;282.40;2227.20
56123;DHT22;42426;46.104;19.656;2023-03-21T04:20:44;282.40;2227.20
56123;DHT22;42426;46.104;19.656;2023-03-21T04:23:09;282.40;2227.20
56123;DHT22;42426;46.104;19.656;2023-03-21T04:25:36;282.50;2227.20
56123;DHT22;42426;46.104;19.656;2023-03-21T04:28:02;282.40;2227.20
56123;DHT22;42426;46.104;19.656;2023-03-21T04:30:28;282.40;2252.80
56123;DHT22;42426;46.104;19.656;2023-03-21T04:32:53;282.40;2252.80
56123;DHT22;42426;46.104;19.656;2023-03-21T04:35:22;282.40;2252.80
56123;DHT22;42426;46.104;19.656;2023-03-21T04:37:48;282.40;2252.80
56123;DHT22;42426;46.104;19.656;2023-03-21T04:40:14;282.40;2252.80
56123;DHT22;42426;46.104;19.656;2023-03-21T04:42:43;282.30;2278.40
56123;DHT22;42426;46.104;19.656;2023-03-21T04:45:09;282.30;2252.80
56123;DHT22;42426;46.104;19.656;2023-03-21T04:47:35;282.10;2278.40
56123;DHT22;42426;46.104;19.656;2023-03-21T04:50:00;282.20;2278.40
56123;DHT22;42426;46.104;19.656;2023-03-21T04:52:26;282.20;2278.40
56123;DHT22;42426;46.104;19.656;2023-03-21T04:54:52;282.20;2278.40
56123;DHT22;42426;46.104;19.656;2023-03-21T04:57:18;282.20;2278.40
56123;DHT22;42426;46.104;19.656;2023-03-21T04:59:44;282.20;2278.40
56123;DHT22;42426;46.104;19.656;2023-03-21T05:02:11;282.20;2278.40
56123;DHT22;42426;46.104;19.656;2023-03-21T05:04:37;282.20;2278.40
56123;DHT22;42426;46.104;19.656;2023-03-21T05:07:02;282.20;2278.40
56123;DHT22;42426;46.104;19.656;2023-03-21T05:09:28;282.20;2278.40
56123;DHT22;42426;46.104;19.656;2023-03-21T05:11:54;282.20;2278.40
56123;DHT22;42426;46.104;19.656;2023-03-21T05:14:22;282.20;2278.40
56123;DHT22;42426;46.104;19.656;2023-03-21T05:16:49;282.20;2278.40
56123;DHT22;42426;46.104;19.656;2023-03-21T05:19:22;282.20;2278.40
56123;DHT22;42426;46.104;19.656;2023-03-21T05:21:49;282.20;2278.40
56123;DHT22;42426;46.104;19.656;2023-03-21T05:24:16;282.20;2278.40
56123;DHT22;42426;46.104;19.656;2023-03-21T05:26:44;282.20;2278.40
56123;DHT22;42426;46.104;19.656;2023-03-21T05:29:15;282.10;2278.40
56123;DHT22;42426;46.104;19.656;2023-03-21T05:31:41;282.30;2278.40
56123;DHT22;42426;46.104;19.656;2023-03-21T05:34:07;282.30;2278.40
56123;DHT22;42426;46.104;19.656;2023-03-21T05:36:32;282.30;2278.40
56123;DHT22;42426;46.104;19.656;2023-03-21T05:39:00;282.30;2278.40
56123;DHT22;42426;46.104;19.656;2023-03-21T05:41:26;282.50;2278.40
56123;DHT22;42426;46.104;19.656;2023-03-21T05:43:52;282.40;2278.40
56123;DHT22;42426;46.104;19.656;2023-03-21T05:46:17;282.40;2278.40
56123;DHT22;42426;46.104;19.656;2023-03-21T05:48:43;282.40;2278.40
56123;DHT22;42426;46.104;19.656;2023-03-21T05:51:09;282.50;2278.40
56123;DHT22;42426;46.104;19.656;2023-03-21T05:53:35;282.50;2278.40
56123;DHT22;42426;46.104;19.656;2023-03-21T05:56:01;282.50;2278.40
56123;DHT22;42426;46.104;19.656;2023-03-21T05:58:26;307.20;2278.40
56123;DHT22;42426;46.104;19.656;2023-03-21T06:00:52;307.20;2278.40
56123;DHT22;42426;46.104;19.656;2023-03-21T06:03:18;307.20;2278.40
56123;DHT22;42426;46.104;19.656;2023-03-21T06:05:44;307.20;2278.40
56123;DHT22;42426;46.104;19.656;2023-03-21T06:08:09;307.20;2278.40
56123;DHT22;42426;46.104;19.656;2023-03-21T06:10:35;307.20;2278.40
56123;DHT22;42426;46.104;19.656;2023-03-21T06:13:00;307.20;2278.40
56123;DHT22;42426;46.104;19.656;2023-03-21T06:15:26;307.20;2278.40
56123;DHT22;42426;46.104;19.656;2023-03-21T06:17:52;307.20;2278.40
56123;DHT22;42426;46.104;19.656;2023-03-21T06:20:17;307.30;2278.40
56123;DHT22;42426;46.104;19.656;2023-03-21T06:22:43;307.30;2278.40
56123;DHT22;42426;46.104;19.656;2023-03-21T06:25:09;307.30;2278.40
56123;DHT22;42426;46.104;19.656;2023-03-21T06:27:36;307.30;2278.40
56123;DHT22;42426;46.104;19.656;2023-03-21T06:30:02;307.40;2252.80
56123;DHT22;42426;46.104;19.656;2023-03-21T06:32:28;307.40;2278.40
56123;DHT22;42426;46.104;19.656;2023-03-21T06:34:54;307.30;2278.40
56123;DHT22;42426;46.104;19.656;2023-03-21T06:37:20;307.30;2278.40
56123;DHT22;42426;46.104;19.656;2023-03-21T06:39:46;307.30;2278.40
56123;DHT22;42426;46.104;19.656;2023-03-21T06:42:13;307.30;2278.40
56123;DHT22;42426;46.104;19.656;2023-03-21T06:44:39;307.40;2278.40
56123;DHT22;42426;46.104;19.656;2023-03-21T06:47:05;307.40;2278.40
56123;DHT22;42426;46.104;19.656;2023-03-21T06:49:32;307.50;2278.40
56123;DHT22;42426;46.104;19.656;2023-03-21T06:51:57;307.50;2278.40
56123;DHT22;42426;46.104;19.656;2023-03-21T06:54:23;307.60;2252.80
56123;DHT22;42426;46.104;19.656;2023-03-21T06:56:49;307.70;2252.80
56123;DHT22;42426;46.104;19.656;2023-03-21T06:59:16;307.70;2252.80
56123;DHT22;42426;46.104;19.656;2023-03-21T07:01:42;307.80;2252.80
56123;DHT22;42426;46.104;19.656;2023-03-21T07:04:09;307.80;2227.20
56123;DHT22;42426;46.104;19.656;2023-03-21T07:06:34;307.90;2227.20
56123;DHT22;42426;46.104;19.656;2023-03-21T07:09:02;307.90;2227.20
56123;DHT22;42426;46.104;19.656;2023-03-21T07:11:30;308.00;2201.60
56123;DHT22;42426;46.104;19.656;2023-03-21T07:13:56;308.10;2201.60
56123;DHT22;42426;46.104;19.656;2023-03-21T07:16:23;332.80;2227.20
56123;DHT22;42426;46.104;19.656;2023-03-21T07:18:49;332.90;2227.20
56123;DHT22;42426;46.104;19.656;2023-03-21T07:21:15;333.10;2201.60
56123;DHT22;42426;46.104;19.656;2023-03-21T07:23:41;333.20;2201.60
56123;DHT22;42426;46.104;19.656;2023-03-21T07:26:07;333.30;2176.00
56123;DHT22;42426;46.104;19.656;2023-03-21T07:28:33;333.40;2176.00
56123;DHT22;42426;46.104;19.656;2023-03-21T07:31:04;333.50;2150.40
56123;DHT22;42426;46.104;19.656;2023-03-21T07:33:32;333.60;2150.40
56123;DHT22;42426;46.104;19.656;2023-03-21T07:35:58;333.70;2150.40
56123;DHT22;42426;46.104;19.656;2023-03-21T07:38:24;358.40;2124.80
56123;DHT22;42426;46.104;19.656;2023-03-21T07:40:50;358.40;2099.20
56123;DHT22;42426;46.104;19.656;2023-03-21T07:43:16;358.60;2099.20
56123;DHT22;42426;46.104;19.656;2023-03-21T07:45:43;358.60;2099.20
56123;DHT22;42426;46.104;19.656;2023-03-21T07:48:09;358.70;2073.60
56123;DHT22;42426;46.104;19.656;2023-03-21T07:50:38;358.70;2099.20
56123;DHT22;42426;46.104;19.656;2023-03-21T07:55:30;359.20;2048.00
56123;DHT22;42426;46.104;19.656;2023-03-21T07:58:02;359.00;2048.00
56123;DHT22;42426;46.104;19.656;2023-03-21T08:00:28;359.10;2073.60
56123;DHT22;42426;46.104;19.656;2023-03-21T08:02:55;359.10;2048.00
56123;DHT22;42426;46.104;19.656;2023-03-21T08:05:22;359.10;2048.00
56123;DHT22;42426;46.104;19.656;2023-03-21T08:07:48;359.20;2048.00
56123;DHT22;42426;46.104;19.656;2023-03-21T08:10:14;359.30;2022.40
56123;DHT22;42426;46.104;19.656;2023-03-21T08:12:40;384.00;1996.80
56123;DHT22;42426;46.104;19.656;2023-03-21T08:15:07;384.10;1996.80
56123;DHT22;42426;46.104;19.656;2023-03-21T08:17:33;384.10;1996.80
56123;DHT22;42426;46.104;19.656;2023-03-21T08:20:03;384.20;1971.20
56123;DHT22;42426;46.104;19.656;2023-03-21T08:22:32;384.20;1971.20
56123;DHT22;42426;46.104;19.656;2023-03-21T08:24:58;384.30;1971.20
56123;DHT22;42426;46.104;19.656;2023-03-21T08:27:23;384.30;1971.20
56123;DHT22;42426;46.104;19.656;2023-03-21T08:29:50;384.30;1945.60
56123;DHT22;42426;46.104;19.656;2023-03-21T08:32:17;384.30;1945.60
56123;DHT22;42426;46.104;19.656;2023-03-21T08:34:43;384.40;1945.60
56123;DHT22;42426;46.104;19.656;2023-03-21T08:37:09;384.40;1945.60
56123;DHT22;42426;46.104;19.656;2023-03-21T08:39:35;384.50;1945.60
56123;DHT22;42426;46.104;19.656;2023-03-21T08:42:00;384.50;1945.60
56123;DHT22;42426;46.104;19.656;2023-03-21T08:44:26;384.60;1945.60
56123;DHT22;42426;46.104;19.656;2023-03-21T08:46:52;384.60;1920.00
56123;DHT22;42426;46.104;19.656;2023-03-21T08:49:18;384.70;1920.00
56123;DHT22;42426;46.104;19.656;2023-03-21T08:51:43;384.70;1920.00
56123;DHT22;42426;46.104;19.656;2023-03-21T08:54:20;384.80;1920.00
56123;DHT22;42426;46.104;19.656;2023-03-21T08:56:46;384.80;1920.00
56123;DHT22;42426;46.104;19.656;2023-03-21T08:59:12;384.80;1920.00
56123;DHT22;42426;46.104;19.656;2023-03-21T09:01:37;384.90;1920.00
56123;DHT22;42426;46.104;19.656;2023-03-21T09:04:03;409.60;1945.60
56123;DHT22;42426;46.104;19.656;2023-03-21T09:06:32;409.60;1920.00
56123;DHT22;42426;46.104;19.656;2023-03-21T09:08:58;409.60;1920.00
56123;DHT22;42426;46.104;19.656;2023-03-21T09:11:24;409.70;1920.00
56123;DHT22;42426;46.104;19.656;2023-03-21T09:13:50;409.70;1894.40
56123;DHT22;42426;46.104;19.656;2023-03-21T09:16:16;409.80;1894.40
56123;DHT22;42426;46.104;19.656;2023-03-21T09:18:41;409.90;1868.80
56123;DHT22;42426;46.104;19.656;2023-03-21T09:21:12;410.00;1843.20
56123;DHT22;42426;46.104;19.656;2023-03-21T09:23:40;410.00;1843.20
56123;DHT22;42426;46.104;19.656;2023-03-21T09:26:07;410.00;1843.20
56123;DHT22;42426;46.104;19.656;2023-03-21T09:28:34;410.00;1843.20
56123;DHT22;42426;46.104;19.656;2023-03-21T09:31:02;410.10;1843.20
56123;DHT22;42426;46.104;19.656;2023-03-21T09:33:28;410.20;1843.20
56123;DHT22;42426;46.104;19.656;2023-03-21T09:35:55;410.30;1843.20
56123;DHT22;42426;46.104;19.656;2023-03-21T09:38:21;410.30;1817.60
56123;DHT22;42426;46.104;19.656;2023-03-21T09:41:11;410.30;1843.20
56123;DHT22;42426;46.104;19.656;2023-03-21T09:46:18;410.50;1817.60
56123;DHT22;42426;46.104;19.656;2023-03-21T09:49:01;410.50;1792.00
56123;DHT22;42426;46.104;19.656;2023-03-21T09:51:44;410.50;1792.00
56123;DHT22;42426;46.104;19.656;2023-03-21T09:56:48;435.20;1740.80
56123;DHT22;42426;46.104;19.656;2023-03-21T09:59:31;435.20;1766.40
56123;DHT22;42426;46.104;19.656;2023-03-21T10:02:00;435.20;1740.80
56123;DHT22;42426;46.104;19.656;2023-03-21T10:04:27;435.30;1766.40
56123;DHT22;42426;46.104;19.656;2023-03-21T10:06:59;435.30;1715.20
56123;DHT22;42426;46.104;19.656;2023-03-21T10:09:27;435.50;1689.60
56123;DHT22;42426;46.104;19.656;2023-03-21T10:14:38;435.30;1689.60
56123;DHT22;42426;46.104;19.656;2023-03-21T10:20:17;435.80;1664.00
56123;DHT22;42426;46.104;19.656;2023-03-21T10:22:43;435.90;1664.00
56123;DHT22;42426;46.104;19.656;2023-03-21T10:25:47;435.90;1638.40
56123;DHT22;42426;46.104;19.656;2023-03-21T10:28:07;435.90;1638.40
56123;DHT22;42426;46.104;19.656;2023-03-21T10:33:21;435.90;1664.00
56123;DHT22;42426;46.104;19.656;2023-03-21T10:35:54;436.00;1664.00
56123;DHT22;42426;46.104;19.656;2023-03-21T10:38:23;436.00;1612.80
56123;DHT22;42426;46.104;19.656;2023-03-21T10:40:50;460.80;1638.40
56123;DHT22;42426;46.104;19.656;2023-03-21T10:45:52;461.00;1612.80
56123;DHT22;42426;46.104;19.656;2023-03-21T10:48:17;461.10;1587.20
56123;DHT22;42426;46.104;19.656;2023-03-21T10:50:46;461.10;1612.80
56123;DHT22;42426;46.104;19.656;2023-03-21T10:53:29;461.00;1561.60
56123;DHT22;42426;46.104;19.656;2023-03-21T10:55:58;461.10;1561.60
56123;DHT22;42426;46.104;19.656;2023-03-21T10:58:27;461.10;1561.60
56123;DHT22;42426;46.104;19.656;2023-03-21T11:01:00;461.00;1536.00
56123;DHT22;42426;46.104;19.656;2023-03-21T11:03:29;461.00;1587.20
56123;DHT22;42426;46.104;19.656;2023-03-21T11:06:05;461.00;1536.00
56123;DHT22;42426;46.104;19.656;2023-03-21T11:08:43;461.10;1561.60
56123;DHT22;42426;46.104;19.656;2023-03-21T11:11:10;461.10;1510.40
56123;DHT22;42426;46.104;19.656;2023-03-21T11:13:44;461.20;1484.80
56123;DHT22;42426;46.104;19.656;2023-03-21T11:16:20;461.30;1510.40
56123;DHT22;42426;46.104;19.656;2023-03-21T11:18:50;461.30;1484.80
56123;DHT22;42426;46.104;19.656;2023-03-21T11:21:17;461.30;1459.20
56123;DHT22;42426;46.104;19.656;2023-03-21T11:23:44;461.30;1484.80
56123;DHT22;42426;46.104;19.656;2023-03-21T11:26:30;461.40;1459.20
56123;DHT22;42426;46.104;19.656;2023-03-21T11:28:57;461.40;1433.60
56123;DHT22;42426;46.104;19.656;2023-03-21T11:31:39;461.50;1433.60
56123;DHT22;42426;46.104;19.656;2023-03-21T11:34:07;461.50;1433.60
56123;DHT22;42426;46.104;19.656;2023-03-21T11:36:35;461.50;1433.60
56123;DHT22;42426;46.104;19.656;2023-03-21T11:39:44;461.50;1433.60
56123;DHT22;42426;46.104;19.656;2023-03-21T11:45:04;461.50;1459.20
56123;DHT22;42426;46.104;19.656;2023-03-21T11:47:34;461.50;1433.60
56123;DHT22;42426;46.104;19.656;2023-03-21T11:50:00;461.50;1433.60
56123;DHT22;42426;46.104;19.656;2023-03-21T11:52:40;461.50;1433.60
56123;DHT22;42426;46.104;19.656;2023-03-21T11:58:07;461.60;1408.00
56123;DHT22;42426;46.104;19.656;2023-03-21T12:06:29;461.70;1408.00
56123;DHT22;42426;46.104;19.656;2023-03-21T12:11:44;486.40;1331.20
56123;DHT22;42426;46.104;19.656;2023-03-21T12:25:30;486.70;1331.20
56123;DHT22;42426;46.104;19.656;2023-03-21T12:28:17;486.70;1331.20
56123;DHT22;42426;46.104;19.656;2023-03-21T12:44:48;486.70;1331.20
56123;DHT22;42426;46.104;19.656;2023-03-21T12:47:31;486.70;1305.60
56123;DHT22;42426;46.104;19.656;2023-03-21T12:52:41;486.50;1331.20
56123;DHT22;42426;46.104;19.656;2023-03-21T12:55:20;486.50;1305.60
56123;DHT22;42426;46.104;19.656;2023-03-21T12:58:10;486.40;1331.20
56123;DHT22;42426;46.104;19.656;2023-03-21T13:00:46;461.70;1305.60
56123;DHT22;42426;46.104;19.656;2023-03-21T13:03:19;461.70;1331.20
56123;DHT22;42426;46.104;19.656;2023-03-21T13:06:03;461.70;1331.20
56123;DHT22;42426;46.104;19.656;2023-03-21T13:08:32;461.60;1305.60
56123;DHT22;42426;46.104;19.656;2023-03-21T13:10:59;461.50;1280.00
56123;DHT22;42426;46.104;19.656;2023-03-21T13:27:35;486.70;1228.80
56123;DHT22;42426;46.104;19.656;2023-03-21T13:29:48;486.70;1203.20
56123;DHT22;42426;46.104;19.656;2023-03-21T13:32:35;486.80;1177.60
56123;DHT22;42426;46.104;19.656;2023-03-21T13:38:00;486.80;1152.00
56123;DHT22;42426;46.104;19.656;2023-03-21T13:40:33;486.80;1177.60
56123;DHT22;42426;46.104;19.656;2023-03-21T13:43:00;486.80;1152.00
56123;DHT22;42426;46.104;19.656;2023-03-21T13:45:37;486.80;1177.60
56123;DHT22;42426;46.104;19.656;2023-03-21T13:51:02;486.90;1177.60
56123;DHT22;42426;46.104;19.656;2023-03-21T13:53:41;487.00;1177.60
56123;DHT22;42426;46.104;19.656;2023-03-21T14:01:33;487.00;1152.00
56123;DHT22;42426;46.104;19.656;2023-03-21T14:06:56;487.20;1152.00
56123;DHT22;42426;46.104;19.656;2023-03-21T14:09:56;487.20;1152.00
56123;DHT22;42426;46.104;19.656;2023-03-21T14:12:45;487.30;1177.60
56123;DHT22;42426;46.104;19.656;2023-03-21T14:15:16;512.00;1152.00
56123;DHT22;42426;46.104;19.656;2023-03-21T14:17:58;487.30;1177.60
56123;DHT22;42426;46.104;19.656;2023-03-21T14:20:30;487.20;1177.60
56123;DHT22;42426;46.104;19.656;2023-03-21T14:22:57;487.00;1177.60
56123;DHT22;42426;46.104;19.656;2023-03-21T14:25:25;487.30;1177.60
56123;DHT22;42426;46.104;19.656;2023-03-21T14:27:58;487.30;1203.20
56123;DHT22;42426;46.104;19.656;2023-03-21T14:30:29;487.30;1152.00
56123;DHT22;42426;46.104;19.656;2023-03-21T14:32:58;512.00;1152.00
56123;DHT22;42426;46.104;19.656;2023-03-21T14:35:29;512.10;1152.00
56123;DHT22;42426;46.104;19.656;2023-03-21T14:38:03;512.10;1126.40
56123;DHT22;42426;46.104;19.656;2023-03-21T14:40:29;512.20;1126.40
56123;DHT22;42426;46.104;19.656;2023-03-21T14:42:55;512.20;1126.40
56123;DHT22;42426;46.104;19.656;2023-03-21T14:45:27;512.10;1126.40
56123;DHT22;42426;46.104;19.656;2023-03-21T14:48:05;512.20;1126.40
56123;DHT22;42426;46.104;19.656;2023-03-21T14:50:56;512.10;1100.80
56123;DHT22;42426;46.104;19.656;2023-03-21T14:53:22;512.10;1126.40
56123;DHT22;42426;46.104;19.656;2023-03-21T14:58:19;512.10;1152.00
56123;DHT22;42426;46.104;19.656;2023-03-21T15:00:48;512.10;1126.40
56123;DHT22;42426;46.104;19.656;2023-03-21T15:03:16;512.10;1152.00
56123;DHT22;42426;46.104;19.656;2023-03-21T15:05:45;512.20;1126.40
56123;DHT22;42426;46.104;19.656;2023-03-21T15:10:36;512.10;1152.00
56123;DHT22;42426;46.104;19.656;2023-03-21T15:13:27;487.30;1126.40
56123;DHT22;42426;46.104;19.656;2023-03-21T15:15:53;512.00;1152.00
56123;DHT22;42426;46.104;19.656;2023-03-21T15:18:46;512.00;1126.40
56123;DHT22;42426;46.104;19.656;2023-03-21T15:21:26;512.10;1126.40
56123;DHT22;42426;46.104;19.656;2023-03-21T15:23:59;512.10;1152.00
56123;DHT22;42426;46.104;19.656;2023-03-21T15:26:29;487.30;1100.80
56123;DHT22;42426;46.104;19.656;2023-03-21T15:28:57;487.30;1126.40
56123;DHT22;42426;46.104;19.656;2023-03-21T15:31:35;512.00;1100.80
56123;DHT22;42426;46.104;19.656;2023-03-21T15:34:03;512.00;1100.80
56123;DHT22;42426;46.104;19.656;2023-03-21T15:36:35;512.00;1152.00
56123;DHT22;42426;46.104;19.656;2023-03-21T15:39:07;512.00;1126.40
56123;DHT22;42426;46.104;19.656;2023-03-21T15:41:40;487.30;1100.80
56123;DHT22;42426;46.104;19.656;2023-03-21T15:46:47;487.30;1100.80
56123;DHT22;42426;46.104;19.656;2023-03-21T15:49:33;487.30;1075.20
56123;DHT22;42426;46.104;19.656;2023-03-21T15:52:13;487.20;1075.20
56123;DHT22;42426;46.104;19.656;2023-03-21T15:54:50;487.20;1049.60
56123;DHT22;42426;46.104;19.656;2023-03-21T15:57:25;486.90;1075.20
56123;DHT22;42426;46.104;19.656;2023-03-21T15:59:57;486.70;1100.80
56123;DHT22;42426;46.104;19.656;2023-03-21T16:02:28;486.60;1100.80
56123;DHT22;42426;46.104;19.656;2023-03-21T16:05:16;486.40;1126.40
56123;DHT22;42426;46.104;19.656;2023-03-21T16:07:45;461.70;1126.40
56123;DHT22;42426;46.104;19.656;2023-03-21T16:10:25;461.60;1152.00
56123;DHT22;42426;46.104;19.656;2023-03-21T16:12:54;461.60;1152.00
56123;DHT22;42426;46.104;19.656;2023-03-21T16:15:20;461.50;1152.00
56123;DHT22;42426;46.104;19.656;2023-03-21T16:17:57;461.40;1177.60
56123;DHT22;42426;46.104;19.656;2023-03-21T16:20:27;461.30;1177.60
56123;DHT22;42426;46.104;19.656;2023-03-21T16:22:53;461.30;1177.60
56123;DHT22;42426;46.104;19.656;2023-03-21T16:25:19;461.30;1177.60
56123;DHT22;42426;46.104;19.656;2023-03-21T16:27:46;461.20;1177.60
56123;DHT22;42426;46.104;19.656;2023-03-21T16:30:14;461.10;1228.80
56123;DHT22;42426;46.104;19.656;2023-03-21T16:32:40;461.10;1228.80
56123;DHT22;42426;46.104;19.656;2023-03-21T16:35:06;461.00;1228.80
56123;DHT22;42426;46.104;19.656;2023-03-21T16:37:33;460.90;1228.80
56123;DHT22;42426;46.104;19.656;2023-03-21T16:39:59;460.90;1254.40
56123;DHT22;42426;46.104;19.656;2023-03-21T16:42:25;460.80;1254.40
56123;DHT22;42426;46.104;19.656;2023-03-21T16:44:50;460.80;1280.00
56123;DHT22;42426;46.104;19.656;2023-03-21T16:47:18;460.80;1280.00
56123;DHT22;42426;46.104;19.656;2023-03-21T16:49:44;436.10;1254.40
56123;DHT22;42426;46.104;19.656;2023-03-21T16:52:11;436.00;1254.40
56123;DHT22;42426;46.104;19.656;2023-03-21T16:54:38;436.00;1280.00
56123;DHT22;42426;46.104;19.656;2023-03-21T16:57:06;435.80;1280.00
56123;DHT22;42426;46.104;19.656;2023-03-21T16:59:34;435.70;1331.20
56123;DHT22;42426;46.104;19.656;2023-03-21T17:01:59;435.70;1280.00
56123;DHT22;42426;46.104;19.656;2023-03-21T17:04:25;435.70;1280.00